createdAt,value
2019-05-30T15:44:00.024Z,63.60
2019-05-30T15:46:28.874Z,65.50
2019-05-30T15:48:59.104Z,68.60
2019-05-30T15:51:27.713Z,70.30
2019-05-30T15:53:56.318Z,71.30
2019-05-30T15:56:25.189Z,71.90
2019-05-30T15:58:53.870Z,72.30
2019-05-30T16:01:34.850Z,79.80
2019-05-30T16:04:03.555Z,72.40
2019-05-30T16:06:33.723Z,72.40
2019-05-30T16:09:02.546Z,72.70
2019-05-30T16:11:32.873Z,72.70
2019-05-30T16:14:01.724Z,72.80
2019-05-30T16:16:39.499Z,72.80
2019-05-30T16:19:15.100Z,72.90
2019-05-30T16:21:31.097Z,73.00
2019-05-30T16:23:59.979Z,73.00
2019-05-30T16:26:29.617Z,73.00
2019-05-30T16:28:58.359Z,72.90
2019-05-30T16:31:26.880Z,73.10
2019-05-30T16:33:57.462Z,73.00
2019-05-30T16:36:26.363Z,73.20
2019-05-30T16:38:55.094Z,73.30
2019-05-30T16:41:23.649Z,73.40
2019-05-30T16:43:52.423Z,73.50
2019-05-30T16:46:22.742Z,73.50
2019-05-30T16:48:51.430Z,73.50
2019-05-30T16:51:21.110Z,73.40
2019-05-30T16:53:50.117Z,73.40
2019-05-30T16:56:19.418Z,73.40
2019-05-30T16:58:48.179Z,73.30
2019-05-30T17:01:19.473Z,73.40
2019-05-30T17:03:48.617Z,73.30
2019-05-30T17:06:18.023Z,73.10
2019-05-30T17:08:46.855Z,73.20
2019-05-30T17:11:15.594Z,73.00
2019-05-30T17:13:44.252Z,73.00
2019-05-30T17:16:12.940Z,73.00
2019-05-30T17:18:41.626Z,73.00
2019-05-30T17:21:10.314Z,72.90
2019-05-30T17:23:39.040Z,72.90
2019-05-30T17:26:08.024Z,72.90
2019-05-30T17:28:36.702Z,72.90
2019-05-30T17:31:05.440Z,72.90
2019-05-30T17:33:34.138Z,72.80
2019-05-30T17:36:02.904Z,73.00
2019-05-30T17:38:33.012Z,72.90
2019-05-30T17:41:01.777Z,73.00
2019-05-30T17:43:30.565Z,73.00
2019-05-30T17:45:59.338Z,72.90
2019-05-30T17:48:28.101Z,73.00
2019-05-30T17:50:56.776Z,73.00
2019-05-30T17:53:25.967Z,73.00
2019-05-30T17:55:54.610Z,73.40
2019-05-30T17:58:23.921Z,73.30
2019-05-30T18:00:52.645Z,73.00
2019-05-30T18:03:22.340Z,72.90
2019-05-30T18:05:51.161Z,73.00
2019-05-30T18:08:20.848Z,72.90
2019-05-30T18:10:53.667Z,73.10
2019-05-30T18:13:21.140Z,73.50
2019-05-30T18:15:50.905Z,73.40
2019-05-30T18:18:21.065Z,74.00
2019-05-30T18:20:50.017Z,73.30
2019-05-30T18:23:18.812Z,73.50
2019-05-30T18:25:47.678Z,73.60
2019-05-30T18:28:16.877Z,73.70
2019-05-30T18:30:45.659Z,73.90
2019-05-30T18:33:14.543Z,74.00
2019-05-30T18:35:45.712Z,74.30
2019-05-30T18:38:15.717Z,74.50
2019-05-30T18:40:45.309Z,74.60
2019-05-30T18:43:17.912Z,75.60
2019-05-30T18:45:47.184Z,74.80
2019-05-30T18:48:17.442Z,75.00
2019-05-30T18:50:46.352Z,75.10
2019-05-30T18:53:15.062Z,75.30
2019-05-30T18:55:43.839Z,75.40
2019-05-30T18:58:12.642Z,75.40
2019-05-30T19:00:41.475Z,75.60
2019-05-30T19:03:10.422Z,75.60
2019-05-30T19:05:39.536Z,75.70
2019-05-30T19:08:08.309Z,75.90
2019-05-30T19:10:37.274Z,75.70
2019-05-30T19:13:06.007Z,76.10
2019-05-30T19:15:35.862Z,75.90
2019-05-30T19:18:04.720Z,75.70
2019-05-30T19:20:33.925Z,75.70
2019-05-30T19:23:02.662Z,75.90
2019-05-30T19:25:32.343Z,75.90
2019-05-30T19:38:04.367Z,64.50
2019-05-30T19:40:34.050Z,63.80
2019-05-30T19:43:04.816Z,65.60
2019-05-30T19:45:36.102Z,63.70
2019-05-30T19:54:46.674Z,57.80
2019-05-30T19:57:16.473Z,61.10
2019-05-30T19:59:46.619Z,62.10
2019-05-30T20:02:16.245Z,63.80
2019-05-30T20:04:45.991Z,65.60
2019-05-30T20:07:15.706Z,66.80
2019-05-30T20:10:00.213Z,68.20
2019-05-30T20:12:16.886Z,68.90
2019-05-30T20:14:47.102Z,69.80
2019-05-30T20:17:16.759Z,70.10
2019-05-30T20:19:46.415Z,70.60
2019-05-30T20:22:16.198Z,71.40
2019-05-30T20:24:45.973Z,71.70
2019-05-30T20:27:15.818Z,72.10
2019-05-30T20:29:46.673Z,72.50
2019-05-30T20:32:16.394Z,73.00
2019-05-30T20:34:47.121Z,73.20
2019-05-30T20:37:16.176Z,72.80
2019-05-30T20:39:47.220Z,73.30
2019-05-30T20:42:19.443Z,72.70
2019-05-30T20:44:48.590Z,72.80
2019-05-30T20:47:18.368Z,73.20
2019-05-30T20:49:48.767Z,73.10
2019-05-30T20:52:20.642Z,73.30
2019-05-30T20:54:50.508Z,73.50
2019-05-30T20:57:20.242Z,73.60
2019-05-30T20:59:50.142Z,73.80
2019-05-30T21:02:20.197Z,73.90
2019-05-30T21:04:51.717Z,74.00
2019-05-30T21:07:22.370Z,74.10
2019-05-30T21:09:53.357Z,74.30
2019-05-30T21:12:36.876Z,74.70
2019-05-30T21:14:59.090Z,74.70
2019-05-30T21:17:30.280Z,74.80
2019-05-30T21:20:00.080Z,74.90
2019-05-30T21:22:31.414Z,74.90
2019-05-30T21:25:01.298Z,74.90
2019-05-30T21:27:30.997Z,74.90
2019-05-30T21:30:00.624Z,75.00
2019-05-30T21:32:30.440Z,75.60
2019-05-30T21:35:00.481Z,75.40
2019-05-30T21:37:30.412Z,75.80
2019-05-30T21:40:00.394Z,75.80
2019-05-30T21:42:31.120Z,75.90
2019-05-30T21:45:01.128Z,76.00
2019-05-30T21:47:30.845Z,77.20
2019-05-30T21:50:01.070Z,76.30
2019-05-30T21:52:32.251Z,76.70
2019-05-30T21:55:03.409Z,76.60
2019-05-30T21:57:33.490Z,76.70
2019-05-30T22:00:13.359Z,76.80
2019-05-30T22:02:48.591Z,76.90
2019-05-30T22:05:19.362Z,77.20
2019-05-30T22:07:49.237Z,77.20
2019-05-30T22:10:18.979Z,77.40
2019-05-30T22:12:49.700Z,77.40
2019-05-30T22:15:19.439Z,78.00
2019-05-30T22:17:49.897Z,77.60
2019-05-30T22:20:19.640Z,77.90
2019-05-30T22:22:50.217Z,78.30
2019-05-30T22:25:19.978Z,78.30
2019-05-30T22:27:50.568Z,79.00
2019-05-30T22:30:20.602Z,78.80
2019-05-30T22:32:50.766Z,78.90
2019-05-30T22:35:20.640Z,79.10
2019-05-30T22:37:51.017Z,79.40
2019-05-30T22:40:20.724Z,79.50
2019-05-30T22:42:52.264Z,79.80
2019-05-30T22:45:22.059Z,80.00
2019-05-30T22:47:52.527Z,80.10
2019-05-30T22:50:22.180Z,80.20
2019-05-30T22:52:52.969Z,80.60
2019-05-30T22:55:21.940Z,80.50
2019-05-30T22:57:52.524Z,82.10
2019-05-30T23:00:21.565Z,80.70
2019-05-30T23:02:51.920Z,82.50
2019-05-30T23:05:21.705Z,81.00
2019-05-30T23:07:51.478Z,81.30
2019-05-30T23:10:21.227Z,81.50
2019-05-30T23:12:52.285Z,81.90
2019-05-30T23:15:22.002Z,82.00
2019-05-30T23:17:52.801Z,82.30
2019-05-30T23:20:22.594Z,82.40
2019-05-30T23:22:53.028Z,82.60
2019-05-30T23:25:23.842Z,82.80
2019-05-30T23:27:53.605Z,83.20
2019-05-30T23:30:23.238Z,84.50
2019-05-30T23:32:54.012Z,83.20
2019-05-30T23:35:23.882Z,83.40
2019-05-30T23:37:54.608Z,83.90
2019-05-30T23:40:24.307Z,84.10
2019-05-30T23:42:55.045Z,84.40
2019-05-30T23:45:23.945Z,84.60
2019-05-30T23:47:53.600Z,86.30
2019-05-30T23:50:23.492Z,85.00
2019-05-30T23:52:54.094Z,85.20
2019-05-30T23:55:22.994Z,85.30
2019-05-30T23:57:52.620Z,87.10
